createdAt,value
2023-06-05T00:00:10.769Z,56.51
2023-06-05T00:02:42.722Z,56.57
2023-06-05T00:05:12.843Z,56.64
2023-06-05T00:07:42.117Z,57.30
2023-06-05T00:10:11.270Z,56.71
2023-06-05T00:12:39.892Z,57.13
2023-06-05T00:15:09.393Z,57.83
2023-06-05T00:17:39.007Z,58.49
2023-06-05T00:20:11.328Z,57.34
2023-06-05T00:22:45.659Z,56.71
2023-06-05T00:25:14.444Z,57.19
2023-06-05T00:27:43.191Z,57.26
2023-06-05T00:30:12.291Z,56.89
2023-06-05T00:32:40.980Z,56.28
2023-06-05T00:35:11.342Z,56.68
2023-06-05T00:37:41.517Z,55.59
2023-06-05T00:40:10.783Z,56.51
2023-06-05T00:42:39.368Z,57.47
2023-06-05T00:45:10.308Z,56.15
2023-06-05T00:47:40.443Z,55.72
2023-06-05T00:50:12.940Z,55.26
2023-06-05T00:52:44.056Z,55.40
2023-06-05T00:55:13.271Z,56.97
2023-06-05T00:57:42.268Z,56.83
2023-06-05T01:00:13.816Z,58.19
2023-06-05T01:02:43.971Z,56.66
2023-06-05T01:05:12.811Z,56.87
2023-06-05T01:07:43.297Z,56.73
2023-06-05T01:10:12.894Z,57.14
2023-06-05T01:12:47.008Z,55.87
2023-06-05T01:15:17.518Z,55.26
2023-06-05T01:17:48.713Z,54.57
2023-06-05T01:20:21.378Z,55.09
2023-06-05T01:22:53.627Z,55.83
2023-06-05T01:25:24.276Z,55.69
2023-06-05T01:27:58.747Z,55.49
2023-06-05T01:30:33.042Z,55.21
2023-06-05T01:33:05.701Z,56.36
2023-06-05T01:35:38.224Z,57.76
2023-06-05T01:38:10.898Z,56.86
2023-06-05T01:40:41.035Z,56.75
2023-06-05T01:43:12.025Z,58.08
2023-06-05T01:45:42.591Z,57.06
2023-06-05T01:48:12.215Z,57.59
2023-06-05T01:50:43.548Z,57.97
2023-06-05T01:53:14.000Z,58.05
2023-06-05T01:55:42.793Z,57.88
2023-06-05T01:58:11.840Z,57.18
2023-06-05T02:00:40.443Z,56.88
2023-06-05T02:03:09.224Z,57.86
2023-06-05T02:05:37.714Z,57.78
2023-06-05T02:08:07.088Z,57.49
2023-06-05T02:10:38.572Z,57.87
2023-06-05T02:13:07.400Z,59.28
2023-06-05T02:15:36.967Z,57.84
2023-06-05T02:18:09.413Z,57.73
2023-06-05T02:20:38.473Z,58.19
2023-06-05T02:23:07.965Z,57.10
2023-06-05T02:25:38.311Z,56.82
2023-06-05T02:28:07.104Z,56.56
2023-06-05T02:30:35.771Z,56.91
2023-06-05T02:33:04.987Z,56.12
2023-06-05T02:35:36.960Z,55.65
2023-06-05T02:38:07.765Z,55.57
2023-06-05T02:40:37.897Z,55.52
2023-06-05T02:43:06.846Z,55.42
2023-06-05T02:45:35.944Z,54.27
2023-06-05T02:48:05.740Z,53.88
2023-06-05T02:50:34.786Z,53.79
2023-06-05T02:53:06.913Z,52.36
2023-06-05T02:55:38.972Z,53.83
2023-06-05T02:58:14.130Z,54.38
2023-06-05T03:00:51.995Z,54.51
2023-06-05T03:03:27.207Z,54.70
2023-06-05T03:05:56.914Z,55.53
2023-06-05T03:08:28.057Z,54.78
2023-06-05T03:10:59.956Z,55.03
2023-06-05T03:13:28.916Z,54.55
2023-06-05T03:15:59.210Z,54.42
2023-06-05T03:18:31.970Z,53.78
2023-06-05T03:21:24.197Z,53.67
2023-06-05T03:23:53.491Z,53.36
2023-06-05T03:26:27.397Z,53.87
2023-06-05T03:28:56.924Z,52.24
2023-06-05T03:31:26.187Z,52.13
2023-06-05T03:33:54.948Z,50.90
2023-06-05T03:36:24.201Z,49.27
2023-06-05T03:38:53.766Z,50.23
2023-06-05T03:41:23.815Z,49.44
2023-06-05T03:43:53.050Z,48.79
2023-06-05T03:46:25.773Z,48.34
2023-06-05T03:48:57.435Z,48.92
2023-06-05T03:51:31.107Z,49.26
2023-06-05T03:54:00.924Z,49.47
2023-06-05T03:56:40.915Z,48.69
2023-06-05T03:59:22.274Z,48.31
2023-06-05T04:01:59.250Z,47.70
2023-06-05T04:04:27.987Z,47.57
2023-06-05T04:07:01.750Z,47.14
2023-06-05T04:09:32.647Z,47.34
2023-06-05T04:12:02.866Z,47.27
2023-06-05T04:14:32.940Z,46.33
2023-06-05T04:17:01.758Z,46.06
2023-06-05T04:19:30.456Z,44.25
2023-06-05T04:22:00.541Z,43.68
2023-06-05T04:24:30.611Z,43.82
2023-06-05T04:27:01.969Z,44.33
2023-06-05T04:29:33.615Z,44.20
2023-06-05T04:32:28.318Z,45.73
2023-06-05T04:34:57.380Z,45.03
2023-06-05T04:37:26.109Z,45.76
2023-06-05T04:39:56.310Z,45.15
2023-06-05T04:42:25.067Z,46.24
2023-06-05T04:45:02.891Z,46.45
2023-06-05T04:47:34.627Z,46.92
2023-06-05T04:50:05.498Z,47.93
2023-06-05T04:52:37.848Z,48.02
2023-06-05T04:55:07.562Z,49.29
2023-06-05T04:57:37.737Z,49.92
2023-06-05T05:00:12.356Z,49.75
2023-06-05T05:02:41.131Z,49.68
2023-06-05T05:05:10.359Z,48.16
2023-06-05T05:07:42.225Z,46.44
2023-06-05T05:10:11.863Z,45.87
2023-06-05T05:12:43.471Z,44.51
2023-06-05T05:15:14.353Z,43.08
2023-06-05T05:17:53.424Z,42.05
2023-06-05T05:20:27.016Z,42.72
2023-06-05T05:22:57.172Z,41.38
2023-06-05T05:25:52.032Z,43.04
2023-06-05T05:28:21.320Z,43.15
2023-06-05T05:30:54.702Z,45.64
2023-06-05T05:33:24.418Z,46.66
2023-06-05T05:35:55.430Z,47.27
2023-06-05T05:38:24.630Z,47.91
2023-06-05T05:40:53.607Z,49.91
2023-06-05T05:43:30.242Z,51.01
2023-06-05T05:46:02.315Z,52.04
2023-06-05T05:48:34.095Z,54.32
2023-06-05T05:51:08.587Z,54.79
2023-06-05T05:53:40.445Z,53.55
2023-06-05T05:56:11.954Z,53.43
2023-06-05T05:58:47.567Z,51.57
2023-06-05T06:01:18.199Z,52.03
2023-06-05T06:03:46.929Z,52.44
2023-06-05T06:06:26.415Z,52.23
2023-06-05T06:09:06.304Z,53.22
2023-06-05T06:12:07.203Z,54.19
2023-06-05T06:14:42.965Z,54.20
2023-06-05T06:17:14.034Z,52.64
2023-06-05T06:19:43.478Z,52.68
2023-06-05T06:22:15.334Z,52.73
2023-06-05T06:24:47.449Z,53.04
2023-06-05T06:27:33.917Z,54.77
2023-06-05T06:30:04.202Z,55.08
2023-06-05T06:32:37.022Z,55.66
2023-06-05T06:35:07.575Z,56.97
2023-06-05T06:37:37.125Z,56.08
2023-06-05T06:40:11.037Z,57.31
2023-06-05T06:42:40.146Z,59.92
2023-06-05T06:45:18.841Z,57.96
2023-06-05T06:48:05.815Z,58.66
2023-06-05T06:50:36.029Z,57.44
2023-06-05T06:53:05.080Z,57.41
2023-06-05T06:55:34.244Z,58.73
2023-06-05T06:58:02.956Z,58.74
2023-06-05T07:00:31.617Z,58.22
2023-06-05T07:03:01.623Z,55.70
2023-06-05T07:05:38.983Z,56.75
2023-06-05T07:08:12.630Z,55.26
2023-06-05T07:10:43.492Z,55.98
2023-06-05T07:13:12.537Z,55.90
2023-06-05T07:15:41.125Z,54.09
2023-06-05T07:18:42.054Z,55.04
2023-06-05T07:21:13.748Z,52.45
2023-06-05T07:23:43.324Z,51.61
2023-06-05T07:26:19.807Z,53.44
2023-06-05T07:28:49.422Z,52.50
2023-06-05T07:31:18.598Z,54.93
2023-06-05T07:33:48.742Z,51.33
2023-06-05T07:36:17.724Z,51.88
2023-06-05T07:38:46.318Z,50.91
2023-06-05T07:41:14.807Z,50.25
2023-06-05T07:43:43.483Z,49.41
2023-06-05T07:46:12.420Z,49.76
2023-06-05T07:48:41.025Z,50.45
2023-06-05T07:51:13.261Z,47.27
2023-06-05T07:53:42.123Z,45.94
2023-06-05T07:56:13.214Z,44.75
2023-06-05T07:58:42.885Z,44.62
2023-06-05T08:01:14.114Z,44.33
2023-06-05T08:03:50.082Z,44.00
2023-06-05T08:06:33.716Z,44.34
2023-06-05T08:09:13.917Z,44.19
2023-06-05T08:12:01.159Z,42.51
2023-06-05T08:14:29.802Z,41.84
2023-06-05T08:16:58.419Z,42.88
2023-06-05T08:19:26.986Z,45.47
2023-06-05T08:21:58.093Z,42.64
2023-06-05T08:24:28.301Z,40.61
2023-06-05T08:26:57.074Z,39.58
2023-06-05T08:29:25.664Z,39.97
2023-06-05T08:31:54.209Z,41.66
2023-06-05T08:34:22.680Z,41.61
2023-06-05T08:36:51.925Z,42.88
2023-06-05T08:39:21.919Z,43.60
2023-06-05T08:41:53.096Z,45.06
2023-06-05T08:44:21.674Z,44.28
2023-06-05T08:46:51.596Z,44.37
2023-06-05T08:49:25.566Z,45.15
2023-06-05T08:51:55.981Z,42.56
2023-06-05T08:54:26.961Z,43.36
2023-06-05T08:56:55.949Z,41.99
2023-06-05T08:59:26.067Z,40.87
2023-06-05T09:01:54.966Z,40.15
2023-06-05T09:04:26.533Z,38.74
2023-06-05T09:06:55.888Z,38.98
2023-06-05T09:09:26.782Z,40.36
2023-06-05T09:12:04.682Z,40.99
2023-06-05T09:14:34.047Z,40.67
2023-06-05T09:17:03.813Z,40.99
2023-06-05T09:19:42.322Z,41.02
2023-06-05T09:22:13.745Z,40.53
2023-06-05T09:24:44.946Z,39.36
2023-06-05T09:27:13.635Z,39.79
2023-06-05T09:29:44.963Z,41.96
2023-06-05T09:32:20.974Z,41.73
2023-06-05T09:35:01.041Z,41.24
2023-06-05T09:37:40.150Z,39.69
2023-06-05T09:40:16.200Z,38.75
2023-06-05T09:42:44.925Z,39.01
2023-06-05T09:45:13.468Z,39.18
2023-06-05T09:47:53.574Z,38.15
2023-06-05T09:50:25.878Z,35.92
2023-06-05T09:52:57.866Z,37.91
2023-06-05T09:55:29.640Z,38.08
2023-06-05T09:58:02.070Z,37.28
2023-06-05T10:00:31.158Z,40.17
2023-06-05T10:03:00.746Z,41.13
2023-06-05T10:05:30.177Z,41.18
2023-06-05T10:07:59.950Z,40.86
2023-06-05T10:10:31.921Z,44.87
2023-06-05T10:13:00.864Z,50.31
2023-06-05T10:15:29.996Z,52.84
2023-06-05T10:17:59.461Z,54.34
2023-06-05T10:20:28.827Z,52.55
2023-06-05T10:22:59.803Z,53.37
2023-06-05T10:25:31.514Z,61.93
2023-06-05T10:28:19.160Z,63.95
2023-06-05T10:31:23.668Z,63.91
2023-06-05T10:34:17.054Z,68.48
2023-06-05T10:37:01.033Z,65.28
2023-06-05T10:39:32.513Z,61.99
2023-06-05T10:42:02.804Z,62.73
2023-06-05T10:44:47.114Z,60.73
2023-06-05T10:47:56.212Z,57.94
2023-06-05T10:50:32.404Z,55.91
2023-06-05T10:53:01.649Z,57.17
2023-06-05T10:55:44.508Z,55.60
2023-06-05T10:58:16.617Z,56.74
2023-06-05T11:01:20.716Z,55.21
2023-06-05T11:03:57.521Z,52.25
2023-06-05T11:06:26.831Z,48.08
2023-06-05T11:09:13.748Z,49.69
2023-06-05T11:12:02.395Z,50.48
2023-06-05T11:14:49.045Z,54.34
2023-06-05T11:17:34.115Z,54.22
2023-06-05T11:20:06.604Z,53.74
2023-06-05T11:22:35.505Z,53.01
2023-06-05T11:25:22.658Z,53.83
2023-06-05T11:27:53.480Z,53.76
2023-06-05T11:30:39.141Z,54.86
2023-06-05T11:33:15.910Z,50.55
2023-06-05T11:35:46.553Z,50.41
2023-06-05T11:38:18.803Z,50.98
2023-06-05T11:40:49.771Z,49.74
2023-06-05T11:43:18.663Z,46.88
2023-06-05T11:45:54.316Z,45.61
2023-06-05T11:48:23.699Z,45.90
2023-06-05T11:50:57.745Z,47.50
2023-06-05T11:53:27.292Z,46.68
2023-06-05T11:56:07.752Z,46.67
2023-06-05T11:58:38.638Z,48.66
2023-06-05T12:01:16.002Z,49.75
2023-06-05T12:03:44.853Z,53.33
2023-06-05T12:06:14.524Z,55.97
2023-06-05T12:08:44.154Z,50.47
2023-06-05T12:11:23.882Z,53.56
2023-06-05T12:13:53.868Z,55.84
2023-06-05T12:16:34.176Z,54.29
2023-06-05T12:19:13.943Z,53.52
2023-06-05T12:21:44.195Z,54.59
2023-06-05T12:24:13.187Z,54.00
2023-06-05T12:26:55.295Z,54.91
2023-06-05T12:29:26.380Z,54.45
2023-06-05T12:31:58.902Z,53.34
2023-06-05T12:37:31.235Z,51.42
2023-06-05T12:40:01.219Z,51.00
2023-06-05T12:42:37.716Z,51.93
2023-06-05T12:45:08.811Z,52.21
2023-06-05T12:47:40.015Z,52.21
2023-06-05T12:50:13.387Z,52.50
2023-06-05T12:52:43.168Z,53.71
2023-06-05T12:55:12.302Z,51.66
2023-06-05T12:57:41.975Z,53.50
2023-06-05T13:00:14.557Z,53.16
2023-06-05T13:02:47.030Z,54.74
2023-06-05T13:05:16.880Z,55.36
2023-06-05T13:07:46.330Z,55.40
2023-06-05T13:10:15.212Z,54.31
2023-06-05T13:12:44.464Z,54.62
2023-06-05T13:15:13.405Z,54.03
2023-06-05T13:17:42.260Z,51.72
2023-06-05T13:20:14.176Z,51.11
2023-06-05T13:22:43.717Z,50.78
2023-06-05T13:25:13.452Z,50.06
2023-06-05T13:27:42.185Z,50.60
2023-06-05T13:30:11.447Z,48.96
2023-06-05T13:32:40.620Z,50.74
2023-06-05T13:35:12.206Z,49.63
2023-06-05T13:37:41.909Z,50.10
2023-06-05T13:40:12.990Z,49.22
2023-06-05T13:42:41.917Z,46.91
2023-06-05T13:45:11.849Z,46.30
2023-06-05T13:47:40.554Z,47.23
2023-06-05T13:50:09.572Z,47.36
2023-06-05T13:52:39.484Z,42.91
2023-06-05T13:55:09.450Z,41.12
2023-06-05T13:57:38.042Z,44.85
2023-06-05T14:00:07.630Z,43.74
2023-06-05T14:02:36.387Z,42.45
2023-06-05T14:05:05.230Z,40.97
2023-06-05T14:07:44.554Z,41.27
2023-06-05T14:10:19.362Z,41.05
2023-06-05T14:12:48.667Z,42.02
2023-06-05T14:15:18.847Z,42.41
2023-06-05T14:17:50.903Z,42.49
2023-06-05T14:20:20.973Z,43.01
2023-06-05T14:22:49.663Z,42.50
2023-06-05T14:25:20.234Z,41.46
2023-06-05T14:27:49.053Z,38.51
2023-06-05T14:30:17.626Z,39.22
2023-06-05T14:32:46.324Z,39.07
2023-06-05T14:35:15.110Z,39.03
2023-06-05T14:37:43.514Z,38.78
2023-06-05T14:40:12.739Z,39.75
2023-06-05T14:42:42.745Z,39.81
2023-06-05T14:45:12.269Z,39.15
2023-06-05T14:47:40.977Z,40.54
2023-06-05T14:50:10.313Z,40.05
2023-06-05T14:52:39.449Z,40.82
2023-06-05T14:55:10.379Z,39.35
2023-06-05T14:57:39.104Z,39.36
2023-06-05T15:00:10.351Z,39.57
2023-06-05T15:02:39.030Z,40.31
2023-06-05T15:05:09.018Z,40.97
2023-06-05T15:07:39.089Z,40.79
2023-06-05T15:10:09.723Z,40.08
2023-06-05T15:12:39.089Z,39.96
2023-06-05T15:15:20.587Z,38.99
2023-06-05T15:17:50.628Z,41.45
2023-06-05T15:20:20.468Z,40.44
2023-06-05T15:23:00.393Z,40.71
2023-06-05T15:25:41.163Z,40.34
2023-06-05T15:28:09.727Z,40.73
2023-06-05T15:30:41.470Z,41.82
2023-06-05T15:33:10.128Z,42.23
2023-06-05T15:35:43.835Z,43.35
2023-06-05T15:38:13.251Z,44.43
2023-06-05T15:40:45.161Z,44.24
2023-06-05T15:43:14.207Z,45.63
2023-06-05T15:45:46.639Z,45.44
2023-06-05T15:48:17.789Z,46.31
2023-06-05T15:50:46.509Z,45.86
2023-06-05T15:53:15.039Z,46.93
2023-06-05T15:55:43.532Z,47.97
2023-06-05T15:58:12.878Z,47.42
2023-06-05T16:00:41.367Z,48.06
2023-06-05T16:03:12.742Z,47.40
2023-06-05T16:05:42.059Z,48.60
2023-06-05T16:08:11.963Z,48.13
2023-06-05T16:10:40.569Z,49.03
2023-06-05T16:13:12.290Z,49.13
2023-06-05T16:15:42.766Z,47.95
2023-06-05T16:18:14.999Z,48.56
2023-06-05T16:20:43.685Z,48.20
2023-06-05T16:23:12.435Z,46.55
2023-06-05T16:25:41.507Z,47.99
2023-06-05T16:28:10.056Z,47.45
2023-06-05T16:30:38.524Z,47.25
2023-06-05T16:33:07.142Z,47.56
2023-06-05T16:35:37.119Z,46.74
2023-06-05T16:38:07.012Z,46.94
2023-06-05T16:40:41.324Z,48.20
2023-06-05T16:43:12.349Z,48.39
2023-06-05T16:45:43.902Z,49.00
2023-06-05T16:48:14.116Z,49.46
2023-06-05T16:50:47.242Z,49.27
2023-06-05T16:53:15.946Z,49.34
2023-06-05T16:55:44.572Z,49.10
2023-06-05T16:58:17.792Z,49.02
2023-06-05T17:00:50.766Z,48.97
2023-06-05T17:03:19.653Z,49.68
2023-06-05T17:05:52.511Z,49.76
2023-06-05T17:08:21.717Z,50.07
2023-06-05T17:10:50.072Z,47.71
2023-06-05T17:13:18.635Z,48.20
2023-06-05T17:15:48.516Z,49.45
2023-06-05T17:18:17.230Z,49.03
2023-06-05T17:20:45.894Z,50.09
2023-06-05T17:23:15.908Z,51.10
2023-06-05T17:25:47.817Z,50.84
2023-06-05T17:28:24.355Z,51.60
2023-06-05T17:30:53.015Z,51.63
2023-06-05T17:33:21.870Z,50.63
2023-06-05T17:35:50.652Z,50.28
2023-06-05T17:38:20.727Z,50.21
2023-06-05T17:40:57.290Z,50.72
2023-06-05T17:43:26.056Z,50.65
2023-06-05T17:45:54.575Z,50.94
2023-06-05T17:48:24.445Z,51.79
2023-06-05T17:50:53.372Z,52.67
2023-06-05T17:53:25.063Z,52.13
2023-06-05T17:55:56.380Z,53.22
2023-06-05T17:58:25.024Z,53.11
2023-06-05T18:00:54.284Z,53.59
2023-06-05T18:03:24.151Z,53.67
2023-06-05T18:05:56.058Z,53.85
2023-06-05T18:08:26.137Z,53.97
2023-06-05T18:10:54.764Z,54.81
2023-06-05T18:13:23.339Z,55.84
2023-06-05T18:15:52.007Z,56.20
2023-06-05T18:18:26.968Z,56.97
2023-06-05T18:21:00.163Z,57.57
2023-06-05T18:23:33.576Z,57.87
2023-06-05T18:26:02.382Z,57.72
2023-06-05T18:28:31.381Z,58.03
2023-06-05T18:31:06.379Z,58.83
2023-06-05T18:33:52.959Z,58.84
2023-06-05T18:36:43.226Z,59.01
2023-06-05T18:39:16.093Z,59.08
2023-06-05T18:41:46.090Z,57.95
2023-06-05T18:44:15.685Z,58.49
2023-06-05T18:46:44.531Z,57.38
2023-06-05T18:49:12.990Z,56.37
2023-06-05T18:51:49.333Z,56.43
2023-06-05T18:54:24.748Z,57.54
2023-06-05T18:56:53.667Z,58.38
2023-06-05T18:59:22.500Z,58.54
2023-06-05T19:01:52.405Z,57.74
2023-06-05T19:04:21.180Z,56.50
2023-06-05T19:06:49.972Z,54.76
2023-06-05T19:09:18.360Z,54.65
2023-06-05T19:11:51.683Z,53.05
2023-06-05T19:14:20.225Z,52.45
2023-06-05T19:16:48.906Z,51.79
2023-06-05T19:19:17.342Z,52.52
2023-06-05T19:21:45.981Z,51.94
2023-06-05T19:24:14.703Z,52.36
2023-06-05T19:26:43.486Z,52.31
2023-06-05T19:29:13.701Z,52.11
2023-06-05T19:31:42.388Z,52.29
2023-06-05T19:34:11.316Z,53.60
2023-06-05T19:36:39.730Z,53.61
2023-06-05T19:39:08.430Z,54.13
2023-06-05T19:41:37.208Z,54.97
2023-06-05T19:44:06.263Z,56.85
2023-06-05T19:46:39.322Z,57.00
2023-06-05T19:49:10.031Z,58.10
2023-06-05T19:51:39.061Z,58.82
2023-06-05T19:54:08.378Z,58.36
2023-06-05T19:56:37.171Z,58.28
2023-06-05T19:59:05.568Z,58.51
2023-06-05T20:01:39.018Z,59.67
2023-06-05T20:04:09.831Z,60.59
2023-06-05T20:06:38.442Z,59.93
2023-06-05T20:09:07.293Z,60.01
2023-06-05T20:11:35.909Z,59.15
2023-06-05T20:14:04.587Z,57.24
2023-06-05T20:16:33.161Z,57.89
2023-06-05T20:19:01.995Z,57.04
2023-06-05T20:21:35.436Z,56.60
2023-06-05T20:24:08.341Z,52.90
2023-06-05T20:26:37.304Z,51.90
2023-06-05T20:29:08.680Z,51.68
2023-06-05T20:31:37.532Z,50.85
2023-06-05T20:34:05.764Z,52.09
2023-06-05T20:36:35.712Z,54.13
2023-06-05T20:39:04.781Z,54.72
2023-06-05T20:41:33.324Z,55.52
2023-06-05T20:44:01.839Z,57.65
2023-06-05T20:46:30.674Z,56.07
2023-06-05T20:49:02.132Z,55.79
2023-06-05T20:51:31.039Z,56.00
2023-06-05T20:54:01.049Z,55.95
2023-06-05T20:56:30.720Z,55.30
2023-06-05T20:58:59.543Z,55.17
2023-06-05T21:01:30.494Z,54.68
2023-06-05T21:04:00.472Z,55.84
2023-06-05T21:06:29.124Z,56.89
2023-06-05T21:08:57.879Z,55.92
2023-06-05T21:11:28.052Z,55.93
2023-06-05T21:13:56.524Z,55.62
2023-06-05T21:16:26.594Z,55.39
2023-06-05T21:18:55.221Z,56.50
2023-06-05T21:21:23.685Z,57.11
2023-06-05T21:23:52.235Z,55.89
2023-06-05T21:26:21.727Z,56.72
2023-06-05T21:28:51.678Z,56.13
2023-06-05T21:31:20.361Z,55.68
2023-06-05T21:33:48.912Z,55.78
2023-06-05T21:36:17.410Z,55.45
2023-06-05T21:38:46.549Z,55.35
2023-06-05T21:41:16.369Z,55.53
2023-06-05T21:43:44.896Z,57.13
2023-06-05T21:46:15.098Z,57.61
2023-06-05T21:48:43.957Z,55.97
2023-06-05T21:51:12.676Z,56.98
2023-06-05T21:53:41.501Z,57.64
2023-06-05T21:56:10.089Z,57.15
2023-06-05T21:58:38.722Z,56.37
2023-06-05T22:01:07.689Z,56.93
2023-06-05T22:03:38.254Z,57.66
2023-06-05T22:06:08.146Z,57.29
2023-06-05T22:08:36.715Z,57.21
2023-06-05T22:11:05.779Z,55.95
2023-06-05T22:13:34.012Z,54.93
2023-06-05T22:16:03.467Z,54.12
2023-06-05T22:18:32.424Z,54.17
2023-06-05T22:21:02.779Z,54.57
2023-06-05T22:23:31.561Z,55.00
2023-06-05T22:25:59.995Z,54.12
2023-06-05T22:28:28.442Z,54.91
2023-06-05T22:30:57.114Z,54.52
2023-06-05T22:33:26.438Z,54.86
2023-06-05T22:35:54.958Z,55.53
2023-06-05T22:38:27.586Z,54.61
2023-06-05T22:40:56.189Z,54.81
2023-06-05T22:43:24.744Z,54.80
2023-06-05T22:45:53.312Z,55.03
2023-06-05T22:48:21.811Z,55.32
2023-06-05T22:50:54.688Z,56.21
2023-06-05T22:53:25.726Z,56.41
2023-06-05T22:55:54.448Z,57.88
2023-06-05T22:58:22.930Z,57.94
2023-06-05T23:00:53.817Z,56.95
2023-06-05T23:03:22.514Z,56.95
2023-06-05T23:05:51.151Z,57.56
2023-06-05T23:08:19.913Z,58.44
2023-06-05T23:10:49.823Z,58.72
2023-06-05T23:13:18.396Z,58.82
2023-06-05T23:15:46.828Z,60.38
2023-06-05T23:18:16.119Z,59.48
2023-06-05T23:20:44.771Z,58.93
2023-06-05T23:23:13.226Z,58.33
2023-06-05T23:25:44.492Z,57.00
2023-06-05T23:28:14.580Z,58.95
2023-06-05T23:30:43.360Z,57.96
2023-06-05T23:33:13.502Z,57.24
2023-06-05T23:35:42.472Z,56.61
2023-06-05T23:38:10.997Z,56.65
2023-06-05T23:40:39.516Z,57.35
2023-06-05T23:43:08.223Z,57.10
2023-06-05T23:45:38.351Z,56.34
2023-06-05T23:48:09.675Z,56.68
2023-06-05T23:50:38.183Z,56.72
2023-06-05T23:53:06.771Z,55.82
2023-06-05T23:55:35.270Z,55.20
2023-06-05T23:58:03.871Z,55.11
